Terminal Aerodrome Forecast
Issued by NWS

Home | Current Version | Previous Version | Text Only | Print | Product List | Glossary On
Versions: 1 2 3 4 5 6 7 8 9 10 11 12 13 14 15 16 17 18 19 20 21 22 23 24
000
FTUS46 KMFR 212340
TAFOTH
TAF
KOTH 212340Z 2200/2224 30010KT P6SM -SHRA SCT015 BKN035
     FM220300 VRB05KT P6SM VCSH BKN025
     FM220500 VRB03KT P6SM -SHRA OVC015
     FM221200 12007KT P6SM -SHRA OVC025=

USA.gov is the U.S. government's official web portal to all federal, state and local government web resources and services.